Time;durP1;ratioP1;P1;durP2;ratioP2;P2;SDS_P1;SDS_P2;PMS_P1;PMS_P2;Temp;Humidity;BMP_temperature;BMP_pressure;BME280_temperature;BME280_humidity;BME280_pressure;Samples;Min_cycle;Max_cycle;Signal;HPM_P1;HPM_P2
2021/05/06 00:32:02;;;;;;;4.70;0.90;;;13.70;56.30;;;;;;6157922;23;20028;-74
2021/05/06 00:33:51;;;;;;;2.83;0.70;;;13.70;56.30;;;;;;6144747;23;20041;-74
2021/05/06 00:36:17;;;;;;;2.88;0.73;;;13.60;56.30;;;;;;6168159;23;20478;-74
2021/05/06 00:38:47;;;;;;;4.03;1.08;;;13.70;56.30;;;;;;6167545;23;20422;-73
2021/05/06 00:56:57;;;;;;;3.60;0.63;;;13.60;56.30;;;;;;6169250;23;20073;-74
2021/05/06 01:00:13;;;;;;;3.33;0.90;;;13.60;56.20;;;;;;6169548;23;20020;-74
2021/05/06 01:04:59;;;;;;;4.22;1.10;;;13.60;56.20;;;;;;6169346;23;20025;-73
2021/05/06 01:07:54;;;;;;;3.35;0.82;;;13.60;56.20;;;;;;6160367;23;20013;-73
2021/05/06 01:12:47;;;;;;;4.25;0.90;;;13.60;56.20;;;;;;6169289;23;20017;-73
2021/05/06 01:15:15;;;;;;;4.05;0.98;;;13.60;56.10;;;;;;6169202;23;20040;-74
2021/05/06 01:17:41;;;;;;;4.13;1.02;;;13.60;56.10;;;;;;6169181;23;20013;-74
2021/05/06 01:20:08;;;;;;;3.42;0.70;;;13.60;56.10;;;;;;6168787;23;20032;-74
2021/05/06 01:22:34;;;;;;;3.17;0.70;;;13.60;56.10;;;;;;6169126;23;20037;-73
2021/05/06 01:25:00;;;;;;;3.17;0.60;;;13.60;56.10;;;;;;6168815;23;20268;-74
2021/05/06 01:34:57;;;;;;;1.60;0.63;;;13.60;56.10;;;;;;6168528;23;20072;-74
2021/05/06 01:37:30;;;;;;;2.00;0.65;;;13.60;56.10;;;;;;6169064;23;20009;-74
2021/05/06 01:42:49;;;;;;;4.05;0.93;;;13.60;56.10;;;;;;6159011;23;20032;-74
2021/05/06 01:45:41;;;;;;;2.15;0.40;;;13.60;56.10;;;;;;6169193;23;20296;-74
2021/05/06 01:51:16;;;;;;;1.98;0.52;;;13.60;56.10;;;;;;6170366;23;20044;-74
2021/05/06 01:59:14;;;;;;;3.50;0.98;;;13.60;56.10;;;;;;6168900;23;19935;-74
2021/05/06 02:01:39;;;;;;;2.25;0.60;;;13.60;56.10;;;;;;6168420;23;20435;-74
2021/05/06 02:04:05;;;;;;;2.45;0.63;;;13.50;56.00;;;;;;6169289;23;20024;-74
2021/05/06 02:06:31;;;;;;;3.50;0.77;;;13.50;56.00;;;;;;6168740;23;20010;-74
2021/05/06 02:08:57;;;;;;;3.53;0.63;;;13.50;56.00;;;;;;6168671;23;20020;-74
2021/05/06 02:11:23;;;;;;;2.25;0.52;;;13.50;56.00;;;;;;6168640;23;20021;-74
2021/05/06 02:13:52;;;;;;;1.50;0.70;;;13.50;56.00;;;;;;6168407;23;20051;-74
2021/05/06 02:16:23;;;;;;;3.53;0.73;;;13.60;56.00;;;;;;6169160;23;20080;-73
2021/05/06 02:18:49;;;;;;;3.38;0.77;;;13.50;56.00;;;;;;6168333;23;20426;-73
2021/05/06 02:21:18;;;;;;;2.33;0.57;;;13.50;56.00;;;;;;6169006;23;20025;-74
2021/05/06 02:23:43;;;;;;;2.42;0.60;;;13.50;56.00;;;;;;6158676;23;20018;-74
2021/05/06 02:26:10;;;;;;;1.88;0.57;;;13.50;56.00;;;;;;6169247;23;20029;-73
2021/05/06 02:28:36;;;;;;;4.00;0.60;;;13.50;56.00;;;;;;6169188;23;20088;-73
2021/05/06 02:31:02;;;;;;;3.83;0.95;;;13.50;56.00;;;;;;6158556;23;20115;-73
2021/05/06 02:33:27;;;;;;;2.97;0.73;;;13.50;55.90;;;;;;6168535;23;20009;-74
2021/05/06 02:35:53;;;;;;;2.95;0.60;;;13.50;55.90;;;;;;6168303;23;20096;-73
2021/05/06 02:38:19;;;;;;;1.40;0.50;;;13.50;55.90;;;;;;6168360;23;20017;-74
2021/05/06 02:40:45;;;;;;;3.75;0.57;;;13.50;55.90;;;;;;6168588;23;20041;-74
2021/05/06 02:43:11;;;;;;;2.85;0.70;;;13.50;55.90;;;;;;6168397;23;20018;-73
2021/05/06 02:45:36;;;;;;;4.50;0.93;;;13.50;55.90;;;;;;6159189;23;20403;-73
2021/05/06 02:48:03;;;;;;;2.53;0.63;;;13.50;55.90;;;;;;6168969;23;20016;-74
2021/05/06 02:50:29;;;;;;;2.20;0.63;;;13.50;55.90;;;;;;6168429;23;20295;-74
2021/05/06 02:53:04;;;;;;;2.70;0.77;;;13.50;55.90;;;;;;6168004;23;20088;-74
2021/05/06 03:03:12;;;;;;;1.70;0.70;;;13.50;55.90;;;;;;6168538;23;20028;-74
2021/05/06 03:05:39;;;;;;;1.75;0.50;;;13.50;55.90;;;;;;6158271;23;20010;-74
2021/05/06 03:13:54;;;;;;;2.13;0.73;;;13.50;55.90;;;;;;6159566;23;20295;-73
2021/05/06 03:24:17;;;;;;;2.40;0.40;;;13.50;55.90;;;;;;6158375;23;20076;-74
2021/05/06 03:26:44;;;;;;;1.58;0.50;;;13.50;55.90;;;;;;6168360;23;20354;-73
2021/05/06 03:42:39;;;;;;;3.22;0.63;;;13.40;55.70;;;;;;6167943;23;20278;-74
2021/05/06 03:48:04;;;;;;;3.08;0.50;;;13.40;55.70;;;;;;6159066;23;20025;-73
2021/05/06 04:25:40;;;;;;;2.40;0.45;;;13.40;55.70;;;;;;6159806;23;20014;-74
2021/05/06 04:36:10;;;;;;;2.22;0.50;;;13.40;55.70;;;;;;6170105;23;20024;-74
2021/05/06 04:38:37;;;;;;;2.33;0.57;;;13.40;55.70;;;;;;6159824;23;20295;-74
2021/05/06 04:57:55;;;;;;;1.77;0.40;;;13.40;55.70;;;;;;6154061;23;20017;-74
2021/05/06 05:03:22;;;;;;;1.85;0.35;;;13.30;55.70;;;;;;6159300;23;20025;-74
2021/05/06 05:05:48;;;;;;;2.63;0.70;;;13.40;55.70;;;;;;6159612;23;20014;-74
2021/05/06 05:08:16;;;;;;;2.75;0.50;;;13.40;55.70;;;;;;6159706;23;20068;-74
2021/05/06 05:13:21;;;;;;;2.80;0.60;;;13.40;55.70;;;;;;6160016;23;20064;-73
2021/05/06 05:24:22;;;;;;;1.88;0.35;;;13.30;55.70;;;;;;6159442;23;20017;-74
2021/05/06 05:26:49;;;;;;;2.83;0.70;;;13.40;55.70;;;;;;6169115;23;20028;-74
2021/05/06 05:29:15;;;;;;;2.20;0.70;;;13.40;55.80;;;;;;6169269;23;20045;-74
2021/05/06 05:31:41;;;;;;;3.00;0.70;;;13.40;55.80;;;;;;6160153;23;20017;-74
2021/05/06 05:37:02;;;;;;;2.97;0.60;;;13.40;55.80;;;;;;6147076;23;20013;-74
2021/05/06 05:42:22;;;;;;;1.58;0.50;;;13.40;55.80;;;;;;6169040;23;20268;-74
2021/05/06 05:55:42;;;;;;;3.42;0.57;;;13.40;55.80;;;;;;6159195;23;20025;-73
2021/05/06 05:58:09;;;;;;;2.63;0.82;;;13.40;55.80;;;;;;6168534;23;20024;-74
2021/05/06 06:00:35;;;;;;;1.33;0.50;;;13.40;55.70;;;;;;6168932;23;20024;-74
2021/05/06 06:03:01;;;;;;;3.42;0.70;;;13.40;55.70;;;;;;6159056;23;20017;-74
2021/05/06 06:05:27;;;;;;;3.35;0.82;;;13.40;55.70;;;;;;6159023;23;20025;-73
2021/05/06 06:07:52;;;;;;;1.75;0.50;;;13.40;55.80;;;;;;6168915;23;20010;-73
2021/05/06 06:10:18;;;;;;;2.55;0.45;;;13.40;55.80;;;;;;6168516;23;20017;-74
2021/05/06 06:12:44;;;;;;;2.25;0.60;;;13.40;55.80;;;;;;6143215;23;20020;-74
2021/05/06 06:15:17;;;;;;;2.95;0.80;;;13.50;55.90;;;;;;6158643;23;20093;-73
2021/05/06 06:17:45;;;;;;;2.88;0.70;;;13.50;55.90;;;;;;6158723;23;20052;-74
2021/05/06 06:20:11;;;;;;;4.32;0.75;;;13.50;55.90;;;;;;6168297;23;20303;-74
2021/05/06 06:22:37;;;;;;;2.15;0.55;;;13.50;55.90;;;;;;6168667;23;20014;-74
2021/05/06 06:25:04;;;;;;;2.00;0.70;;;13.50;55.90;;;;;;6168251;23;20307;-74
2021/05/06 06:27:30;;;;;;;2.00;0.40;;;13.50;56.00;;;;;;6159551;23;20291;-74
2021/05/06 06:29:56;;;;;;;1.33;0.47;;;13.50;56.00;;;;;;6168872;23;20407;-74
2021/05/06 06:32:23;;;;;;;3.10;0.75;;;13.50;56.00;;;;;;6158893;23;20144;-74
2021/05/06 06:34:48;;;;;;;2.65;0.82;;;13.50;56.00;;;;;;6158437;23;20028;-74
2021/05/06 06:37:16;;;;;;;3.70;0.63;;;13.50;56.00;;;;;;6159287;23;20021;-74
2021/05/06 06:39:43;;;;;;;2.25;0.40;;;13.60;56.00;;;;;;6158604;23;20080;-74
2021/05/06 06:42:10;;;;;;;1.70;0.50;;;13.60;56.10;;;;;;6158093;23;20017;-74
2021/05/06 06:44:37;;;;;;;2.33;0.50;;;13.60;56.10;;;;;;6168463;23;20071;-74
2021/05/06 06:47:05;;;;;;;1.95;0.77;;;13.60;56.10;;;;;;6161492;23;20439;-74
2021/05/06 06:49:33;;;;;;;1.77;0.40;;;13.60;56.10;;;;;;6158736;23;20382;-74
2021/05/06 06:52:06;;;;;;;2.25;0.45;;;13.60;56.10;;;;;;6158729;23;20266;-74
2021/05/06 06:54:33;;;;;;;2.13;0.50;;;13.60;56.10;;;;;;6168312;23;20067;-74
2021/05/06 06:56:58;;;;;;;2.97;0.60;;;13.60;56.10;;;;;;6168460;23;20009;-74
2021/05/06 06:59:25;;;;;;;2.97;0.80;;;13.60;56.20;;;;;;6168296;23;20017;-74
2021/05/06 07:01:51;;;;;;;2.63;0.75;;;13.60;56.20;;;;;;6168073;23;20009;-74
2021/05/06 07:04:17;;;;;;;3.35;0.68;;;13.60;56.20;;;;;;6158203;23;20097;-74
2021/05/06 07:06:43;;;;;;;3.40;0.60;;;13.50;56.20;;;;;;6158901;23;20014;-74
2021/05/06 07:09:10;;;;;;;2.63;0.90;;;13.60;56.30;;;;;;6168883;23;20392;-74
2021/05/06 07:11:39;;;;;;;2.63;0.70;;;13.60;56.30;;;;;;6168209;23;20398;-74
2021/05/06 07:14:05;;;;;;;1.30;0.50;;;13.60;56.30;;;;;;6159128;23;20013;-74
2021/05/06 07:16:32;;;;;;;2.75;0.60;;;13.60;56.30;;;;;;6168572;23;20009;-74
2021/05/06 07:18:58;;;;;;;2.28;0.50;;;13.60;56.30;;;;;;6158968;23;20017;-74
2021/05/06 07:21:25;;;;;;;2.90;0.43;;;13.60;56.30;;;;;;6168529;23;20025;-74
2021/05/06 07:23:54;;;;;;;2.55;0.75;;;13.60;56.30;;;;;;6158118;23;20017;-74
2021/05/06 07:26:22;;;;;;;1.40;0.40;;;13.60;56.30;;;;;;6167701;23;20009;-74
2021/05/06 07:28:49;;;;;;;2.25;0.50;;;13.60;56.30;;;;;;6158254;23;20311;-74
2021/05/06 07:31:16;;;;;;;2.10;0.60;;;13.60;56.30;;;;;;6157987;23;20018;-74
2021/05/06 07:33:43;;;;;;;2.47;0.60;;;13.60;56.30;;;;;;6158051;23;20017;-74
2021/05/06 07:36:10;;;;;;;2.08;0.38;;;13.60;56.30;;;;;;6168322;23;20036;-74
2021/05/06 07:38:37;;;;;;;2.30;0.63;;;13.60;56.30;;;;;;6168215;23;20025;-74
2021/05/06 07:41:03;;;;;;;3.05;0.65;;;13.60;56.40;;;;;;6167626;23;20280;-74
2021/05/06 07:43:30;;;;;;;1.77;0.60;;;13.60;56.30;;;;;;6167949;23;20016;-75
2021/05/06 07:45:59;;;;;;;2.90;0.68;;;13.60;56.40;;;;;;6166286;23;20013;-74
2021/05/06 07:48:25;;;;;;;2.38;0.60;;;13.60;56.40;;;;;;6168252;23;20537;-74
2021/05/06 07:50:52;;;;;;;2.05;0.55;;;13.60;56.40;;;;;;6167908;23;20275;-74
2021/05/06 07:53:26;;;;;;;1.63;0.32;;;13.60;56.40;;;;;;6167935;23;20072;-74
2021/05/06 07:55:53;;;;;;;;;;;13.60;56.40;;;;;;6168367;23;20271;-74
2021/05/06 07:58:19;;;;;;;2.40;0.85;;;13.60;56.50;;;;;;6167937;23;19916;-74
2021/05/06 08:00:46;;;;;;;2.08;0.52;;;13.60;56.50;;;;;;6167585;23;20276;-74
2021/05/06 08:03:12;;;;;;;1.98;0.30;;;13.60;56.50;;;;;;6168240;23;20017;-74
2021/05/06 08:05:38;;;;;;;1.98;0.52;;;13.60;56.50;;;;;;6167584;23;20013;-74
2021/05/06 08:08:05;;;;;;;2.22;0.50;;;13.60;56.50;;;;;;6158263;23;20075;-74
2021/05/06 08:10:31;;;;;;;2.33;0.40;;;13.60;56.50;;;;;;6168181;23;20013;-74
2021/05/06 08:13:02;;;;;;;1.48;0.40;;;13.60;56.40;;;;;;6167790;23;20422;-74
2021/05/06 08:15:28;;;;;;;3.13;0.55;;;13.60;56.40;;;;;;6158157;23;20335;-74
2021/05/06 08:17:55;;;;;;;2.60;1.10;;;13.60;56.30;;;;;;6142831;23;20041;-74
2021/05/06 08:20:21;;;;;;;1.27;0.30;;;13.60;56.30;;;;;;6167778;23;20072;-74
2021/05/06 08:22:47;;;;;;;2.28;0.35;;;13.60;56.20;;;;;;6167462;23;20096;-74
2021/05/06 08:25:16;;;;;;;2.53;0.52;;;13.60;56.20;;;;;;6167347;23;20005;-75
2021/05/06 08:27:43;;;;;;;2.10;0.57;;;13.60;56.20;;;;;;6167319;23;20471;-74
2021/05/06 08:30:12;;;;;;;1.65;0.50;;;13.60;56.20;;;;;;6168422;23;20085;-74
2021/05/06 08:32:38;;;;;;;2.22;0.55;;;13.60;56.20;;;;;;6168086;23;20014;-74
2021/05/06 08:35:05;;;;;;;1.85;0.60;;;13.60;56.20;;;;;;6167898;23;20331;-74
2021/05/06 08:37:30;;;;;;;1.08;0.38;;;13.60;56.10;;;;;;6167686;23;20013;-74
2021/05/06 08:39:56;;;;;;;2.22;0.50;;;13.60;56.10;;;;;;6167120;23;20025;-74
2021/05/06 08:42:22;;;;;;;0.73;0.28;;;13.60;56.20;;;;;;6168243;23;20013;-74
2021/05/06 08:44:48;;;;;;;1.20;0.28;;;13.60;56.30;;;;;;6158005;23;20407;-74
2021/05/06 08:47:20;;;;;;;1.73;0.40;;;13.60;56.30;;;;;;6160862;23;20014;-74
2021/05/06 08:49:47;;;;;;;1.40;0.40;;;13.60;56.30;;;;;;6168338;23;20013;-74
2021/05/06 08:52:19;;;;;;;0.60;0.25;;;13.60;56.30;;;;;;6167266;23;20009;-74
2021/05/06 08:54:46;;;;;;;1.13;0.40;;;13.60;56.30;;;;;;6167844;23;20438;-74
2021/05/06 08:57:13;;;;;;;0.70;0.40;;;13.70;56.40;;;;;;6167519;23;20014;-74
2021/05/06 08:59:39;;;;;;;1.60;0.50;;;13.70;56.40;;;;;;6168029;23;20009;-74
2021/05/06 09:02:04;;;;;;;0.68;0.30;;;13.70;56.40;;;;;;6167618;23;20009;-74
2021/05/06 09:04:31;;;;;;;0.98;0.20;;;13.70;56.40;;;;;;6167783;23;20033;-74
2021/05/06 09:07:02;;;;;;;1.40;0.40;;;13.70;56.40;;;;;;6170595;23;20037;-74
2021/05/06 09:09:30;;;;;;;1.70;0.57;;;13.70;56.50;;;;;;6169082;23;20033;-74
2021/05/06 09:12:07;;;;;;;2.45;0.38;;;13.70;56.50;;;;;;6170067;23;20037;-74
2021/05/06 09:14:39;;;;;;;1.27;0.28;;;13.70;56.50;;;;;;6169272;23;20021;-73
2021/05/06 09:17:24;;;;;;;2.35;0.40;;;13.70;56.50;;;;;;6169064;23;20091;-74
2021/05/06 09:20:05;;;;;;;0.60;0.30;;;13.70;56.50;;;;;;6169282;23;20423;-74
2021/05/06 09:22:37;;;;;;;1.35;0.30;;;13.70;56.60;;;;;;6159242;23;20040;-74
2021/05/06 09:25:30;;;;;;;0.52;0.15;;;13.70;56.60;;;;;;6134082;23;20021;-74
2021/05/06 09:28:05;;;;;;;2.42;0.50;;;13.70;56.60;;;;;;6145248;23;20033;-74
2021/05/06 09:30:33;;;;;;;1.10;0.40;;;13.70;56.70;;;;;;6169617;23;20024;-74
2021/05/06 09:33:04;;;;;;;1.52;0.30;;;13.70;56.60;;;;;;6159072;23;20021;-74
2021/05/06 09:35:42;;;;;;;1.30;0.30;;;13.80;56.70;;;;;;6168978;23;20013;-74
2021/05/06 09:38:31;;;;;;;0.82;0.28;;;13.80;56.70;;;;;;6169774;23;20017;-74
2021/05/06 09:41:01;;;;;;;1.13;0.50;;;13.80;56.80;;;;;;6169522;23;20009;-74
2021/05/06 09:43:29;;;;;;;0.40;0.20;;;13.80;56.80;;;;;;6169078;23;20013;-74
2021/05/06 09:45:56;;;;;;;1.85;0.40;;;13.80;56.80;;;;;;6159240;23;20061;-74
2021/05/06 09:48:23;;;;;;;2.40;0.50;;;13.80;56.80;;;;;;6168974;23;20080;-74
2021/05/06 09:50:59;;;;;;;1.42;0.30;;;13.80;56.80;;;;;;6168925;23;20021;-74
2021/05/06 09:53:29;;;;;;;1.20;0.50;;;13.80;56.90;;;;;;6169280;23;20013;-74
2021/05/06 09:55:59;;;;;;;1.00;0.20;;;13.80;56.90;;;;;;6169523;23;20013;-75
2021/05/06 09:58:33;;;;;;;2.25;0.40;;;13.80;56.90;;;;;;6169165;23;20013;-74
2021/05/06 10:01:10;;;;;;;0.85;0.20;;;13.80;56.90;;;;;;6169529;23;20017;-74
2021/05/06 10:03:36;;;;;;;1.33;0.50;;;13.80;56.90;;;;;;6169119;23;20361;-74
2021/05/06 10:06:18;;;;;;;0.95;0.45;;;13.90;57.00;;;;;;6168961;23;20014;-75
2021/05/06 10:08:44;;;;;;;1.35;0.40;;;13.90;57.10;;;;;;6169133;23;20013;-74
2021/05/06 10:11:18;;;;;;;0.93;0.40;;;13.90;57.10;;;;;;6168615;23;20419;-74
2021/05/06 10:13:46;;;;;;;1.33;0.45;;;13.90;57.10;;;;;;6168365;23;20307;-74
2021/05/06 10:16:14;;;;;;;3.17;0.43;;;13.90;57.10;;;;;;6168116;23;20017;-74
2021/05/06 10:18:44;;;;;;;1.15;0.38;;;13.90;57.10;;;;;;6168250;23;20503;-74
2021/05/06 10:21:12;;;;;;;1.27;0.30;;;13.90;57.10;;;;;;6168625;23;20020;-74
2021/05/06 10:23:38;;;;;;;1.25;0.38;;;13.90;57.10;;;;;;6168663;23;20040;-74
2021/05/06 10:26:04;;;;;;;1.70;0.40;;;13.90;57.10;;;;;;6158793;23;20092;-74
2021/05/06 10:28:33;;;;;;;0.68;0.38;;;13.90;57.10;;;;;;6168175;23;20419;-75
2021/05/06 10:31:02;;;;;;;1.35;0.52;;;13.90;57.10;;;;;;6168482;23;20088;-74
2021/05/06 10:33:29;;;;;;;3.20;0.60;;;13.90;57.10;;;;;;6168937;23;20028;-74
2021/05/06 10:36:02;;;;;;;0.82;0.43;;;13.90;57.10;;;;;;6168805;23;20491;-75
2021/05/06 10:38:32;;;;;;;1.42;0.52;;;13.90;57.10;;;;;;6168330;23;20029;-74
2021/05/06 10:41:31;;;;;;;0.95;0.38;;;13.90;57.10;;;;;;6168439;23;20029;-74
2021/05/06 10:44:02;;;;;;;1.45;0.35;;;13.90;57.10;;;;;;6168547;23;20368;-74
2021/05/06 10:46:46;;;;;;;1.65;0.35;;;13.90;57.10;;;;;;6165267;23;20009;-74
2021/05/06 10:49:12;;;;;;;;;;;13.90;57.10;;;;;;6169489;23;20085;-74
2021/05/06 10:51:41;;;;;;;1.10;0.40;;;13.90;57.10;;;;;;6159428;23;19935;-75
2021/05/06 10:54:29;;;;;;;2.22;0.57;;;13.90;57.20;;;;;;6168653;23;20025;-74
2021/05/06 10:56:57;;;;;;;1.63;0.55;;;13.90;57.20;;;;;;6168921;23;20009;-75
2021/05/06 10:59:31;;;;;;;0.57;0.40;;;13.90;57.20;;;;;;6168970;23;20009;-75
2021/05/06 11:01:58;;;;;;;0.85;0.35;;;13.90;57.20;;;;;;6168316;23;20017;-75
2021/05/06 11:05:08;;;;;;;1.33;0.40;;;13.90;57.20;;;;;;6167954;23;20017;-74
2021/05/06 11:07:34;;;;;;;1.27;0.50;;;13.90;57.20;;;;;;6168187;23;20009;-74
2021/05/06 11:10:02;;;;;;;3.05;0.68;;;13.90;57.20;;;;;;6168215;23;20342;-75
2021/05/06 11:12:30;;;;;;;1.80;0.50;;;13.90;57.20;;;;;;6168290;23;20020;-75
2021/05/06 11:14:59;;;;;;;2.20;0.60;;;13.90;57.20;;;;;;6168594;23;20021;-74
2021/05/06 11:17:45;;;;;;;1.55;0.60;;;14.00;57.30;;;;;;6168592;23;20093;-74
2021/05/06 11:20:11;;;;;;;1.00;0.20;;;14.00;57.30;;;;;;6158193;23;20419;-75
2021/05/06 11:25:31;;;;;;;1.90;0.60;;;14.00;57.30;;;;;;6168601;23;20017;-74
2021/05/06 11:28:02;;;;;;;1.30;0.38;;;14.00;57.30;;;;;;6158585;23;20036;-74
2021/05/06 11:30:44;;;;;;;1.70;0.50;;;14.00;57.30;;;;;;6168084;23;20025;-74
2021/05/06 11:33:16;;;;;;;1.20;0.50;;;14.00;57.30;;;;;;6168096;23;20028;-74
2021/05/06 11:35:57;;;;;;;1.00;0.40;;;14.00;57.30;;;;;;6159108;23;20025;-75
2021/05/06 11:38:41;;;;;;;2.00;0.50;;;14.00;57.30;;;;;;6168656;23;20081;-74
2021/05/06 11:41:12;;;;;;;1.10;0.47;;;14.00;57.30;;;;;;6168791;23;20076;-74
2021/05/06 11:43:56;;;;;;;1.48;0.75;;;14.00;57.20;;;;;;6167573;23;20439;-74
2021/05/06 11:46:28;;;;;;;1.00;0.50;;;14.00;57.20;;;;;;6158617;23;20021;-75
2021/05/06 11:49:00;;;;;;;1.27;0.38;;;14.00;57.20;;;;;;6158503;23;20067;-75
2021/05/06 11:51:39;;;;;;;1.77;0.30;;;14.00;57.20;;;;;;6168587;23;20495;-74
2021/05/06 11:54:12;;;;;;;1.40;0.43;;;14.00;57.10;;;;;;6167759;23;20060;-74
2021/05/06 11:56:39;;;;;;;0.97;0.40;;;14.00;57.10;;;;;;6168029;23;20017;-74
2021/05/06 11:59:17;;;;;;;1.20;0.57;;;14.00;57.10;;;;;;6158320;23;20292;-75
2021/05/06 12:01:43;;;;;;;2.53;0.65;;;14.00;57.10;;;;;;6168075;23;20347;-75
2021/05/06 12:04:34;;;;;;;1.40;0.47;;;14.00;57.10;;;;;;6167896;23;20013;-74
2021/05/06 12:07:21;;;;;;;1.33;0.40;;;14.00;57.10;;;;;;6157743;23;20029;-74
2021/05/06 12:09:48;;;;;;;2.25;0.65;;;14.00;57.10;;;;;;6167852;23;20092;-75
2021/05/06 12:12:25;;;;;;;1.70;0.35;;;14.00;57.10;;;;;;6168063;23;20100;-75
2021/05/06 12:14:57;;;;;;;2.53;0.60;;;14.00;57.10;;;;;;6167660;23;20013;-75
2021/05/06 12:17:23;;;;;;;1.02;0.30;;;14.00;57.10;;;;;;6169054;23;20084;-75
2021/05/06 12:19:50;;;;;;;1.40;0.50;;;14.00;57.10;;;;;;6167414;23;20414;-75
2021/05/06 12:22:17;;;;;;;1.65;0.40;;;14.00;57.10;;;;;;6168102;23;20066;-74
2021/05/06 12:24:51;;;;;;;0.88;0.30;;;14.00;57.10;;;;;;6167788;23;20010;-75
2021/05/06 12:27:26;;;;;;;1.25;0.50;;;14.00;57.10;;;;;;6167351;23;20013;-74
2021/05/06 12:30:13;;;;;;;0.82;0.50;;;14.00;57.10;;;;;;6168442;23;20013;-74
2021/05/06 12:32:44;;;;;;;1.67;0.55;;;14.00;57.10;;;;;;6167342;23;20354;-74
2021/05/06 12:35:10;;;;;;;1.38;0.50;;;14.10;57.10;;;;;;6167950;23;20032;-74
2021/05/06 12:37:38;;;;;;;2.58;0.50;;;14.00;57.10;;;;;;6167675;23;20064;-75
2021/05/06 12:40:10;;;;;;;1.67;0.60;;;14.10;57.10;;;;;;6169116;23;20024;-75
2021/05/06 12:42:37;;;;;;;1.13;0.25;;;14.10;57.20;;;;;;6160019;23;20093;-75
2021/05/06 12:45:25;;;;;;;1.20;0.43;;;14.10;57.10;;;;;;6169868;23;20010;-75
2021/05/06 12:47:51;;;;;;;1.25;0.40;;;14.10;57.20;;;;;;6159407;23;20021;-75
2021/05/06 12:50:22;;;;;;;0.50;0.30;;;14.00;57.20;;;;;;6159566;23;20009;-75
2021/05/06 12:53:09;;;;;;;1.27;0.82;;;14.10;57.30;;;;;;6169721;23;20282;-74
2021/05/06 12:55:40;;;;;;;1.38;0.50;;;14.00;57.30;;;;;;6169346;23;20009;-75
2021/05/06 12:58:15;;;;;;;1.23;0.43;;;14.10;57.40;;;;;;6169085;23;20064;-74
2021/05/06 13:00:45;;;;;;;1.77;0.43;;;14.10;57.40;;;;;;6169086;23;20435;-74
2021/05/06 13:03:13;;;;;;;1.15;0.35;;;14.10;57.40;;;;;;6169880;23;20009;-74
2021/05/06 13:05:46;;;;;;;0.70;0.40;;;14.10;57.40;;;;;;6169388;23;20017;-74
2021/05/06 13:08:12;;;;;;;1.60;0.32;;;14.10;57.40;;;;;;6169263;23;20076;-74
2021/05/06 13:10:43;;;;;;;1.23;0.55;;;14.10;57.40;;;;;;6159716;23;20395;-74
2021/05/06 13:13:12;;;;;;;1.27;0.50;;;14.10;57.60;;;;;;6168964;23;20021;-75
2021/05/06 13:15:47;;;;;;;1.08;0.45;;;14.10;57.60;;;;;;6169836;23;20023;-74
2021/05/06 13:18:14;;;;;;;0.70;0.30;;;14.10;57.60;;;;;;6169942;23;20013;-74
2021/05/06 13:20:40;;;;;;;1.27;0.40;;;14.10;58.30;;;;;;6169332;23;20076;-74
2021/05/06 13:23:12;;;;;;;0.95;0.55;;;14.10;57.70;;;;;;6169894;23;20014;-75
2021/05/06 13:25:43;;;;;;;0.60;0.40;;;14.10;57.70;;;;;;6169196;23;20411;-75
2021/05/06 13:28:16;;;;;;;1.20;0.52;;;14.10;57.70;;;;;;6169555;23;20028;-74
2021/05/06 13:30:43;;;;;;;0.85;0.40;;;14.10;57.80;;;;;;6168901;23;20403;-74
2021/05/06 13:33:13;;;;;;;0.88;0.40;;;14.10;57.80;;;;;;6169152;23;20035;-74
2021/05/06 13:35:39;;;;;;;0.85;0.40;;;14.10;57.80;;;;;;6159217;23;20085;-74
2021/05/06 13:38:05;;;;;;;1.02;0.40;;;14.10;57.80;;;;;;6169141;23;20283;-75
2021/05/06 13:40:31;;;;;;;1.05;0.38;;;14.10;57.90;;;;;;6168952;23;20041;-74
2021/05/06 13:42:56;;;;;;;1.65;0.40;;;14.10;57.90;;;;;;6169561;23;20036;-74
2021/05/06 13:45:22;;;;;;;0.93;0.52;;;14.10;57.80;;;;;;6168936;23;20387;-75
2021/05/06 13:47:48;;;;;;;0.55;0.30;;;14.20;57.90;;;;;;6161347;23;20013;-74
2021/05/06 13:50:18;;;;;;;1.02;0.35;;;14.10;57.90;;;;;;6168912;23;20041;-74
2021/05/06 13:52:44;;;;;;;1.10;0.40;;;14.10;57.90;;;;;;6168599;23;20375;-74
2021/05/06 13:55:11;;;;;;;0.60;0.45;;;14.10;57.90;;;;;;6159849;23;20009;-74
2021/05/06 13:57:37;;;;;;;1.52;0.40;;;14.10;57.90;;;;;;6169063;23;20071;-74
2021/05/06 14:00:05;;;;;;;0.90;0.30;;;14.10;57.90;;;;;;6169712;23;20041;-74
2021/05/06 14:02:30;;;;;;;1.15;0.40;;;14.10;57.90;;;;;;6158981;23;20013;-74
2021/05/06 14:04:56;;;;;;;0.98;0.45;;;14.10;57.90;;;;;;6169131;23;20077;-74
2021/05/06 14:07:22;;;;;;;1.10;0.40;;;14.20;58.00;;;;;;6168856;23;20013;-75
2021/05/06 14:09:49;;;;;;;1.40;0.40;;;14.20;58.00;;;;;;6168690;23;20015;-74
2021/05/06 14:12:15;;;;;;;0.80;0.30;;;14.20;58.00;;;;;;6159826;23;20308;-74
2021/05/06 14:14:41;;;;;;;2.30;0.40;;;14.20;58.10;;;;;;6169003;23;20025;-74
2021/05/06 14:17:07;;;;;;;1.63;0.30;;;14.20;58.00;;;;;;6168619;23;20422;-74
2021/05/06 14:19:34;;;;;;;0.70;0.40;;;14.20;58.10;;;;;;6168806;23;20025;-75
2021/05/06 14:22:01;;;;;;;0.90;0.30;;;14.20;58.10;;;;;;6168627;23;20415;-75
2021/05/06 14:24:27;;;;;;;1.40;0.40;;;14.20;58.10;;;;;;6168692;23;20017;-74
2021/05/06 14:26:54;;;;;;;1.13;0.40;;;14.20;58.10;;;;;;6158854;23;20036;-74
2021/05/06 14:29:20;;;;;;;1.20;0.57;;;14.20;58.10;;;;;;6159408;23;20048;-75
2021/05/06 14:31:46;;;;;;;0.30;0.20;;;14.20;58.10;;;;;;6168572;23;20013;-74
2021/05/06 14:34:12;;;;;;;1.00;0.40;;;14.20;58.10;;;;;;6142793;23;20036;-74
2021/05/06 14:36:38;;;;;;;1.02;0.25;;;14.20;58.10;;;;;;6169059;23;20009;-75
2021/05/06 14:39:05;;;;;;;0.88;0.47;;;14.20;58.10;;;;;;6168778;23;20096;-74
2021/05/06 14:41:31;;;;;;;2.05;0.40;;;14.20;58.10;;;;;;6169110;23;20020;-74
2021/05/06 14:43:57;;;;;;;1.65;0.50;;;14.20;58.10;;;;;;6168695;23;20010;-73
2021/05/06 14:46:23;;;;;;;2.25;0.30;;;14.20;58.10;;;;;;6166716;23;20014;-74
2021/05/06 14:48:50;;;;;;;1.33;0.30;;;14.20;58.10;;;;;;6143009;23;20023;-74
2021/05/06 14:51:16;;;;;;;0.93;0.30;;;14.20;58.10;;;;;;6167941;23;20014;-74
2021/05/06 14:53:42;;;;;;;0.63;0.40;;;14.20;58.10;;;;;;6168634;23;20013;-74
2021/05/06 14:56:08;;;;;;;1.30;0.38;;;14.20;58.10;;;;;;6168943;23;20470;-75
2021/05/06 14:58:34;;;;;;;1.48;0.35;;;14.20;58.20;;;;;;6168250;23;20020;-74
2021/05/06 15:00:59;;;;;;;3.30;0.50;;;14.20;58.20;;;;;;6168994;23;20391;-74
2021/05/06 15:03:25;;;;;;;1.08;0.40;;;14.30;58.30;;;;;;6167965;23;20017;-74
2021/05/06 15:05:51;;;;;;;0.80;0.38;;;14.30;58.30;;;;;;6168261;23;20013;-74
2021/05/06 15:08:18;;;;;;;0.82;0.30;;;14.30;58.30;;;;;;6168763;23;20419;-74
2021/05/06 15:10:44;;;;;;;1.00;0.30;;;14.30;58.30;;;;;;6167788;23;20401;-74
2021/05/06 15:13:10;;;;;;;1.05;0.30;;;14.30;58.30;;;;;;6168192;23;20029;-74
2021/05/06 15:15:36;;;;;;;0.63;0.20;;;14.30;58.30;;;;;;6168172;23;20021;-74
2021/05/06 15:18:02;;;;;;;1.52;0.40;;;14.30;58.40;;;;;;6168184;23;20045;-74
2021/05/06 15:20:32;;;;;;;0.40;0.20;;;14.30;58.40;;;;;;6168805;23;20081;-74
2021/05/06 15:22:57;;;;;;;1.38;0.40;;;14.30;58.40;;;;;;6167715;23;20399;-74
2021/05/06 15:25:24;;;;;;;0.98;0.40;;;14.30;58.50;;;;;;6168098;23;20032;-74
2021/05/06 15:27:51;;;;;;;0.85;0.40;;;14.30;58.50;;;;;;6158562;23;20063;-74
2021/05/06 15:30:19;;;;;;;0.82;0.40;;;14.30;58.50;;;;;;6167806;23;20013;-74
2021/05/06 15:32:46;;;;;;;1.45;0.40;;;14.30;58.50;;;;;;6168051;23;20068;-74
2021/05/06 15:35:13;;;;;;;1.20;0.30;;;14.30;58.50;;;;;;6167941;23;20013;-75
2021/05/06 15:37:40;;;;;;;0.88;0.20;;;14.30;58.70;;;;;;6168019;23;20013;-74
2021/05/06 15:40:08;;;;;;;1.00;0.43;;;14.30;58.70;;;;;;6168711;23;20014;-74
2021/05/06 15:42:34;;;;;;;0.70;0.30;;;14.30;58.70;;;;;;6167633;23;20335;-75
2021/05/06 15:45:00;;;;;;;1.77;0.40;;;14.30;58.70;;;;;;6168559;23;20041;-74
2021/05/06 15:47:25;;;;;;;0.90;0.40;;;14.30;58.70;;;;;;6162325;23;20299;-74
2021/05/06 15:49:51;;;;;;;1.20;0.57;;;14.30;58.70;;;;;;6168495;23;20343;-74
2021/05/06 15:52:19;;;;;;;1.33;0.50;;;14.30;58.70;;;;;;6168437;23;20013;-74
2021/05/06 15:54:45;;;;;;;1.35;0.55;;;14.30;58.70;;;;;;6168573;23;20013;-74
2021/05/06 15:57:11;;;;;;;0.70;0.20;;;14.30;58.70;;;;;;6167628;23;20023;-74
2021/05/06 15:59:37;;;;;;;0.70;0.35;;;14.30;58.80;;;;;;6168208;23;20076;-74
2021/05/06 16:02:06;;;;;;;1.02;0.40;;;14.30;58.70;;;;;;6158206;23;20022;-76
2021/05/06 16:04:34;;;;;;;1.65;0.47;;;14.30;58.70;;;;;;6168435;23;20010;-74
2021/05/06 16:07:00;;;;;;;1.05;0.30;;;14.30;58.70;;;;;;6158620;23;20100;-74
2021/05/06 16:09:25;;;;;;;1.75;0.50;;;14.30;58.70;;;;;;6167411;23;20021;-74
2021/05/06 16:11:53;;;;;;;0.70;0.30;;;14.30;58.70;;;;;;6158204;23;20283;-74
2021/05/06 16:14:19;;;;;;;1.15;0.28;;;14.30;58.70;;;;;;6169565;23;20009;-74
2021/05/06 16:16:45;;;;;;;0.50;0.30;;;14.30;58.60;;;;;;6169697;23;20010;-74
2021/05/06 16:19:11;;;;;;;0.90;0.40;;;14.30;58.60;;;;;;6170495;23;20016;-74